sensor_id;sensor_type;location;lat;lon;timestamp;P1;durP1;ratioP1;P2;durP2;ratioP2
830;SDS011;397;50.564;7.272;2023-11-19T00:00:46;1.90;;;0.70;;
830;SDS011;397;50.564;7.272;2023-11-19T00:03:13;11.93;;;9.27;;
830;SDS011;397;50.564;7.272;2023-11-19T00:05:41;9.40;;;7.67;;
830;SDS011;397;50.564;7.272;2023-11-19T00:08:09;11.77;;;9.90;;
830;SDS011;397;50.564;7.272;2023-11-19T00:10:36;10.90;;;7.47;;
830;SDS011;397;50.564;7.272;2023-11-19T00:13:04;3.00;;;1.50;;
830;SDS011;397;50.564;7.272;2023-11-19T00:15:33;3.43;;;2.60;;
830;SDS011;397;50.564;7.272;2023-11-19T00:18:01;4.27;;;3.47;;
830;SDS011;397;50.564;7.272;2023-11-19T00:20:30;3.00;;;1.63;;
830;SDS011;397;50.564;7.272;2023-11-19T00:22:58;2.10;;;1.13;;
830;SDS011;397;50.564;7.272;2023-11-19T00:25:25;4.93;;;2.87;;
830;SDS011;397;50.564;7.272;2023-11-19T00:27:53;1.93;;;1.20;;
830;SDS011;397;50.564;7.272;2023-11-19T00:30:22;2.07;;;0.80;;
830;SDS011;397;50.564;7.272;2023-11-19T00:32:50;7.80;;;5.33;;
830;SDS011;397;50.564;7.272;2023-11-19T00:35:18;4.83;;;3.30;;
830;SDS011;397;50.564;7.272;2023-11-19T00:37:46;3.80;;;2.30;;
830;SDS011;397;50.564;7.272;2023-11-19T00:40:14;2.70;;;1.30;;
830;SDS011;397;50.564;7.272;2023-11-19T00:42:44;3.50;;;1.77;;
830;SDS011;397;50.564;7.272;2023-11-19T00:45:11;4.60;;;1.50;;
830;SDS011;397;50.564;7.272;2023-11-19T00:47:39;3.40;;;1.70;;
830;SDS011;397;50.564;7.272;2023-11-19T00:50:07;2.60;;;1.57;;
830;SDS011;397;50.564;7.272;2023-11-19T00:52:39;2.10;;;1.40;;
830;SDS011;397;50.564;7.272;2023-11-19T00:55:07;2.90;;;1.40;;
830;SDS011;397;50.564;7.272;2023-11-19T00:57:34;2.03;;;1.20;;
830;SDS011;397;50.564;7.272;2023-11-19T01:00:02;2.50;;;1.60;;
830;SDS011;397;50.564;7.272;2023-11-19T01:02:32;2.77;;;1.83;;
830;SDS011;397;50.564;7.272;2023-11-19T01:05:01;2.30;;;1.40;;
830;SDS011;397;50.564;7.272;2023-11-19T01:07:29;2.77;;;1.47;;
830;SDS011;397;50.564;7.272;2023-11-19T01:09:56;2.90;;;1.57;;
830;SDS011;397;50.564;7.272;2023-11-19T01:12:24;2.27;;;1.00;;
830;SDS011;397;50.564;7.272;2023-11-19T01:14:52;2.70;;;0.90;;
830;SDS011;397;50.564;7.272;2023-11-19T01:17:20;1.80;;;0.93;;
830;SDS011;397;50.564;7.272;2023-11-19T01:19:47;2.23;;;1.40;;
830;SDS011;397;50.564;7.272;2023-11-19T01:22:16;2.97;;;1.63;;
830;SDS011;397;50.564;7.272;2023-11-19T01:24:45;6.33;;;1.00;;
830;SDS011;397;50.564;7.272;2023-11-19T01:27:13;1.70;;;0.90;;
830;SDS011;397;50.564;7.272;2023-11-19T01:29:41;1.80;;;0.97;;
830;SDS011;397;50.564;7.272;2023-11-19T01:32:09;3.30;;;1.00;;
830;SDS011;397;50.564;7.272;2023-11-19T01:34:39;1.80;;;1.10;;
830;SDS011;397;50.564;7.272;2023-11-19T01:37:07;1.83;;;0.87;;
830;SDS011;397;50.564;7.272;2023-11-19T01:39:39;2.03;;;0.67;;
830;SDS011;397;50.564;7.272;2023-11-19T01:42:08;3.10;;;0.80;;
830;SDS011;397;50.564;7.272;2023-11-19T01:44:36;2.10;;;1.23;;
830;SDS011;397;50.564;7.272;2023-11-19T01:47:04;2.60;;;0.93;;
830;SDS011;397;50.564;7.272;2023-11-19T01:49:32;2.63;;;1.20;;
830;SDS011;397;50.564;7.272;2023-11-19T01:52:00;1.97;;;1.00;;
830;SDS011;397;50.564;7.272;2023-11-19T01:54:28;3.20;;;1.30;;
830;SDS011;397;50.564;7.272;2023-11-19T01:56:56;3.47;;;1.10;;
830;SDS011;397;50.564;7.272;2023-11-19T01:59:24;1.90;;;1.10;;
830;SDS011;397;50.564;7.272;2023-11-19T02:01:54;5.20;;;1.10;;
830;SDS011;397;50.564;7.272;2023-11-19T02:04:22;1.70;;;0.70;;
830;SDS011;397;50.564;7.272;2023-11-19T02:06:50;1.80;;;1.10;;
830;SDS011;397;50.564;7.272;2023-11-19T02:09:19;2.10;;;0.93;;
830;SDS011;397;50.564;7.272;2023-11-19T02:11:48;1.80;;;0.60;;
830;SDS011;397;50.564;7.272;2023-11-19T02:14:17;4.40;;;0.90;;
830;SDS011;397;50.564;7.272;2023-11-19T02:16:47;3.77;;;0.63;;
830;SDS011;397;50.564;7.272;2023-11-19T02:19:15;1.60;;;0.80;;
830;SDS011;397;50.564;7.272;2023-11-19T02:21:43;1.50;;;0.70;;
830;SDS011;397;50.564;7.272;2023-11-19T02:24:11;1.60;;;0.70;;
830;SDS011;397;50.564;7.272;2023-11-19T02:26:40;3.10;;;1.33;;
830;SDS011;397;50.564;7.272;2023-11-19T02:29:08;1.80;;;0.90;;
830;SDS011;397;50.564;7.272;2023-11-19T02:31:37;1.67;;;1.00;;
830;SDS011;397;50.564;7.272;2023-11-19T02:34:05;3.23;;;1.10;;
830;SDS011;397;50.564;7.272;2023-11-19T02:36:32;2.20;;;0.70;;
830;SDS011;397;50.564;7.272;2023-11-19T02:39:01;2.53;;;0.83;;
830;SDS011;397;50.564;7.272;2023-11-19T02:41:28;2.80;;;0.83;;
830;SDS011;397;50.564;7.272;2023-11-19T02:43:56;1.90;;;1.00;;
830;SDS011;397;50.564;7.272;2023-11-19T02:46:25;3.10;;;1.20;;
830;SDS011;397;50.564;7.272;2023-11-19T02:48:53;2.63;;;0.83;;
830;SDS011;397;50.564;7.272;2023-11-19T02:51:21;3.20;;;1.20;;
830;SDS011;397;50.564;7.272;2023-11-19T02:53:49;5.43;;;1.23;;
830;SDS011;397;50.564;7.272;2023-11-19T02:56:17;3.43;;;1.70;;
830;SDS011;397;50.564;7.272;2023-11-19T02:58:49;3.43;;;1.57;;
830;SDS011;397;50.564;7.272;2023-11-19T03:01:21;2.10;;;1.30;;
830;SDS011;397;50.564;7.272;2023-11-19T03:04:00;2.00;;;0.90;;
830;SDS011;397;50.564;7.272;2023-11-19T03:06:29;3.40;;;1.00;;
830;SDS011;397;50.564;7.272;2023-11-19T03:08:56;1.87;;;0.90;;
830;SDS011;397;50.564;7.272;2023-11-19T03:11:25;4.07;;;0.80;;
830;SDS011;397;50.564;7.272;2023-11-19T03:13:52;1.77;;;0.63;;
830;SDS011;397;50.564;7.272;2023-11-19T03:16:20;1.80;;;0.90;;
830;SDS011;397;50.564;7.272;2023-11-19T03:18:48;2.90;;;0.83;;
830;SDS011;397;50.564;7.272;2023-11-19T03:21:16;2.10;;;0.80;;
830;SDS011;397;50.564;7.272;2023-11-19T03:23:44;1.90;;;0.67;;
830;SDS011;397;50.564;7.272;2023-11-19T03:26:12;1.60;;;0.73;;
830;SDS011;397;50.564;7.272;2023-11-19T03:28:40;1.90;;;0.70;;
830;SDS011;397;50.564;7.272;2023-11-19T03:31:08;2.50;;;1.17;;
830;SDS011;397;50.564;7.272;2023-11-19T03:33:36;2.10;;;0.90;;
830;SDS011;397;50.564;7.272;2023-11-19T03:36:04;2.20;;;1.30;;
830;SDS011;397;50.564;7.272;2023-11-19T03:38:32;1.93;;;1.20;;
830;SDS011;397;50.564;7.272;2023-11-19T03:41:00;3.50;;;1.17;;
830;SDS011;397;50.564;7.272;2023-11-19T03:43:27;1.90;;;1.20;;
830;SDS011;397;50.564;7.272;2023-11-19T03:45:55;7.47;;;3.30;;
830;SDS011;397;50.564;7.272;2023-11-19T03:48:23;2.50;;;1.70;;
830;SDS011;397;50.564;7.272;2023-11-19T03:50:51;2.00;;;1.43;;
830;SDS011;397;50.564;7.272;2023-11-19T03:53:18;2.77;;;1.23;;
830;SDS011;397;50.564;7.272;2023-11-19T03:55:46;2.47;;;1.20;;
830;SDS011;397;50.564;7.272;2023-11-19T03:58:14;1.70;;;0.90;;
830;SDS011;397;50.564;7.272;2023-11-19T04:00:42;1.70;;;1.00;;
830;SDS011;397;50.564;7.272;2023-11-19T04:03:10;1.83;;;1.20;;
830;SDS011;397;50.564;7.272;2023-11-19T04:05:38;2.00;;;1.40;;
830;SDS011;397;50.564;7.272;2023-11-19T04:08:06;2.20;;;1.40;;
830;SDS011;397;50.564;7.272;2023-11-19T04:10:33;3.20;;;1.33;;
830;SDS011;397;50.564;7.272;2023-11-19T04:13:01;2.97;;;1.60;;
830;SDS011;397;50.564;7.272;2023-11-19T04:15:29;2.50;;;1.83;;
830;SDS011;397;50.564;7.272;2023-11-19T04:17:57;2.33;;;1.57;;
830;SDS011;397;50.564;7.272;2023-11-19T04:20:25;2.40;;;1.63;;
830;SDS011;397;50.564;7.272;2023-11-19T04:22:53;2.63;;;1.50;;
830;SDS011;397;50.564;7.272;2023-11-19T04:25:21;2.47;;;1.40;;
830;SDS011;397;50.564;7.272;2023-11-19T04:27:49;2.30;;;1.47;;
830;SDS011;397;50.564;7.272;2023-11-19T04:30:17;2.90;;;1.60;;
830;SDS011;397;50.564;7.272;2023-11-19T04:32:45;2.00;;;1.33;;
830;SDS011;397;50.564;7.272;2023-11-19T04:35:12;4.90;;;1.63;;
830;SDS011;397;50.564;7.272;2023-11-19T04:37:41;4.20;;;0.97;;
830;SDS011;397;50.564;7.272;2023-11-19T04:40:09;1.87;;;1.00;;
830;SDS011;397;50.564;7.272;2023-11-19T04:42:38;3.53;;;1.20;;
830;SDS011;397;50.564;7.272;2023-11-19T04:45:07;1.63;;;0.97;;
830;SDS011;397;50.564;7.272;2023-11-19T04:47:36;2.40;;;1.13;;
830;SDS011;397;50.564;7.272;2023-11-19T04:50:04;1.80;;;1.17;;
830;SDS011;397;50.564;7.272;2023-11-19T04:52:32;2.27;;;1.53;;
830;SDS011;397;50.564;7.272;2023-11-19T04:55:00;2.47;;;1.97;;
830;SDS011;397;50.564;7.272;2023-11-19T04:57:28;2.50;;;1.67;;
830;SDS011;397;50.564;7.272;2023-11-19T04:59:55;4.80;;;1.97;;
830;SDS011;397;50.564;7.272;2023-11-19T05:02:22;2.87;;;1.00;;
830;SDS011;397;50.564;7.272;2023-11-19T05:04:50;4.60;;;1.80;;
830;SDS011;397;50.564;7.272;2023-11-19T05:07:18;8.67;;;2.53;;
830;SDS011;397;50.564;7.272;2023-11-19T05:09:45;2.70;;;1.80;;
830;SDS011;397;50.564;7.272;2023-11-19T05:12:13;4.33;;;2.53;;
830;SDS011;397;50.564;7.272;2023-11-19T05:14:40;4.20;;;1.33;;
830;SDS011;397;50.564;7.272;2023-11-19T05:17:10;3.50;;;1.13;;
830;SDS011;397;50.564;7.272;2023-11-19T05:19:38;2.23;;;0.90;;
830;SDS011;397;50.564;7.272;2023-11-19T05:22:05;4.23;;;1.07;;
830;SDS011;397;50.564;7.272;2023-11-19T05:24:34;2.83;;;1.33;;
830;SDS011;397;50.564;7.272;2023-11-19T05:27:02;2.10;;;1.07;;
830;SDS011;397;50.564;7.272;2023-11-19T05:29:30;5.70;;;1.30;;
830;SDS011;397;50.564;7.272;2023-11-19T05:31:58;2.53;;;1.10;;
830;SDS011;397;50.564;7.272;2023-11-19T05:34:25;4.63;;;1.47;;
830;SDS011;397;50.564;7.272;2023-11-19T05:36:53;2.70;;;1.10;;
830;SDS011;397;50.564;7.272;2023-11-19T05:39:20;5.33;;;1.50;;
830;SDS011;397;50.564;7.272;2023-11-19T05:41:48;7.77;;;1.60;;
830;SDS011;397;50.564;7.272;2023-11-19T05:44:16;2.60;;;1.10;;
830;SDS011;397;50.564;7.272;2023-11-19T05:46:44;2.37;;;1.20;;
830;SDS011;397;50.564;7.272;2023-11-19T05:49:12;2.67;;;1.20;;
830;SDS011;397;50.564;7.272;2023-11-19T05:51:40;1.97;;;1.40;;
830;SDS011;397;50.564;7.272;2023-11-19T05:54:08;3.00;;;1.53;;
830;SDS011;397;50.564;7.272;2023-11-19T05:56:37;2.67;;;1.67;;
830;SDS011;397;50.564;7.272;2023-11-19T05:59:04;3.83;;;1.70;;
830;SDS011;397;50.564;7.272;2023-11-19T06:01:34;2.57;;;1.60;;
830;SDS011;397;50.564;7.272;2023-11-19T06:04:03;3.10;;;1.50;;
830;SDS011;397;50.564;7.272;2023-11-19T06:06:31;2.97;;;1.60;;
830;SDS011;397;50.564;7.272;2023-11-19T06:08:58;3.93;;;1.97;;
830;SDS011;397;50.564;7.272;2023-11-19T06:11:26;2.70;;;2.20;;
830;SDS011;397;50.564;7.272;2023-11-19T06:13:53;4.03;;;1.50;;
830;SDS011;397;50.564;7.272;2023-11-19T06:16:21;4.83;;;2.40;;
830;SDS011;397;50.564;7.272;2023-11-19T06:18:48;6.90;;;2.00;;
830;SDS011;397;50.564;7.272;2023-11-19T06:21:15;5.20;;;2.57;;
830;SDS011;397;50.564;7.272;2023-11-19T06:23:43;10.93;;;3.10;;
830;SDS011;397;50.564;7.272;2023-11-19T06:26:10;4.47;;;2.97;;
830;SDS011;397;50.564;7.272;2023-11-19T06:28:38;6.00;;;3.77;;
830;SDS011;397;50.564;7.272;2023-11-19T06:31:05;5.70;;;3.63;;
830;SDS011;397;50.564;7.272;2023-11-19T06:33:33;4.13;;;2.90;;
830;SDS011;397;50.564;7.272;2023-11-19T06:36:00;3.93;;;2.33;;
830;SDS011;397;50.564;7.272;2023-11-19T06:38:28;2.97;;;1.60;;
830;SDS011;397;50.564;7.272;2023-11-19T06:40:55;4.13;;;2.10;;
830;SDS011;397;50.564;7.272;2023-11-19T06:43:22;4.00;;;2.23;;
830;SDS011;397;50.564;7.272;2023-11-19T06:45:49;3.50;;;1.50;;
830;SDS011;397;50.564;7.272;2023-11-19T06:48:17;3.70;;;2.10;;
830;SDS011;397;50.564;7.272;2023-11-19T06:50:45;4.37;;;2.10;;
830;SDS011;397;50.564;7.272;2023-11-19T06:53:12;6.80;;;2.00;;
830;SDS011;397;50.564;7.272;2023-11-19T06:55:40;3.57;;;2.10;;
830;SDS011;397;50.564;7.272;2023-11-19T06:58:08;8.33;;;2.07;;
830;SDS011;397;50.564;7.272;2023-11-19T07:00:35;5.53;;;2.80;;
830;SDS011;397;50.564;7.272;2023-11-19T07:03:03;5.20;;;2.10;;
830;SDS011;397;50.564;7.272;2023-11-19T07:05:32;6.20;;;2.53;;
830;SDS011;397;50.564;7.272;2023-11-19T07:08:00;12.20;;;2.60;;
830;SDS011;397;50.564;7.272;2023-11-19T07:10:28;7.73;;;2.87;;
830;SDS011;397;50.564;7.272;2023-11-19T07:12:56;9.80;;;3.93;;
830;SDS011;397;50.564;7.272;2023-11-19T07:15:24;9.73;;;2.13;;
830;SDS011;397;50.564;7.272;2023-11-19T07:17:51;8.30;;;3.20;;
830;SDS011;397;50.564;7.272;2023-11-19T07:20:20;6.33;;;2.00;;
830;SDS011;397;50.564;7.272;2023-11-19T07:22:48;6.77;;;2.07;;
830;SDS011;397;50.564;7.272;2023-11-19T07:25:16;7.57;;;3.37;;
830;SDS011;397;50.564;7.272;2023-11-19T07:27:44;13.30;;;2.70;;
830;SDS011;397;50.564;7.272;2023-11-19T07:30:13;11.80;;;2.63;;
830;SDS011;397;50.564;7.272;2023-11-19T07:32:41;8.47;;;2.67;;
830;SDS011;397;50.564;7.272;2023-11-19T07:35:09;9.10;;;2.63;;
830;SDS011;397;50.564;7.272;2023-11-19T07:37:37;15.37;;;4.40;;
830;SDS011;397;50.564;7.272;2023-11-19T07:40:06;11.77;;;2.83;;
830;SDS011;397;50.564;7.272;2023-11-19T07:42:34;8.73;;;2.43;;
830;SDS011;397;50.564;7.272;2023-11-19T07:45:02;12.90;;;3.90;;
830;SDS011;397;50.564;7.272;2023-11-19T07:47:29;10.00;;;3.87;;
830;SDS011;397;50.564;7.272;2023-11-19T07:49:57;5.67;;;3.17;;
830;SDS011;397;50.564;7.272;2023-11-19T07:52:24;15.50;;;3.03;;
830;SDS011;397;50.564;7.272;2023-11-19T07:54:52;14.43;;;3.80;;
830;SDS011;397;50.564;7.272;2023-11-19T07:57:20;11.30;;;3.60;;
830;SDS011;397;50.564;7.272;2023-11-19T07:59:48;16.97;;;3.67;;
830;SDS011;397;50.564;7.272;2023-11-19T08:02:15;15.07;;;4.23;;
830;SDS011;397;50.564;7.272;2023-11-19T08:04:43;9.80;;;3.07;;
830;SDS011;397;50.564;7.272;2023-11-19T08:07:12;10.53;;;3.83;;
830;SDS011;397;50.564;7.272;2023-11-19T08:09:40;9.60;;;3.57;;
830;SDS011;397;50.564;7.272;2023-11-19T08:12:08;11.60;;;3.57;;
830;SDS011;397;50.564;7.272;2023-11-19T08:14:35;9.53;;;3.30;;
830;SDS011;397;50.564;7.272;2023-11-19T08:17:03;9.60;;;2.90;;
830;SDS011;397;50.564;7.272;2023-11-19T08:19:31;12.33;;;3.50;;
830;SDS011;397;50.564;7.272;2023-11-19T08:21:59;8.83;;;3.43;;
830;SDS011;397;50.564;7.272;2023-11-19T08:24:26;21.93;;;4.20;;
830;SDS011;397;50.564;7.272;2023-11-19T08:26:55;10.37;;;2.90;;
830;SDS011;397;50.564;7.272;2023-11-19T08:29:23;10.20;;;3.60;;
830;SDS011;397;50.564;7.272;2023-11-19T08:31:51;14.20;;;3.70;;
830;SDS011;397;50.564;7.272;2023-11-19T08:34:18;13.70;;;4.70;;
830;SDS011;397;50.564;7.272;2023-11-19T08:36:49;9.93;;;3.80;;
830;SDS011;397;50.564;7.272;2023-11-19T08:39:16;11.53;;;4.00;;
830;SDS011;397;50.564;7.272;2023-11-19T08:41:44;13.23;;;4.70;;
830;SDS011;397;50.564;7.272;2023-11-19T08:44:11;18.03;;;4.03;;
830;SDS011;397;50.564;7.272;2023-11-19T08:46:45;14.33;;;4.50;;
830;SDS011;397;50.564;7.272;2023-11-19T08:49:09;15.77;;;4.30;;
830;SDS011;397;50.564;7.272;2023-11-19T08:51:36;13.83;;;3.73;;
830;SDS011;397;50.564;7.272;2023-11-19T08:54:04;8.97;;;3.20;;
830;SDS011;397;50.564;7.272;2023-11-19T08:56:32;10.37;;;3.87;;
830;SDS011;397;50.564;7.272;2023-11-19T08:59:01;10.23;;;4.00;;
830;SDS011;397;50.564;7.272;2023-11-19T09:01:29;21.60;;;4.93;;
830;SDS011;397;50.564;7.272;2023-11-19T09:03:57;8.67;;;3.37;;
830;SDS011;397;50.564;7.272;2023-11-19T09:06:25;12.60;;;3.40;;
830;SDS011;397;50.564;7.272;2023-11-19T09:08:53;13.60;;;3.27;;
830;SDS011;397;50.564;7.272;2023-11-19T09:11:22;9.13;;;3.30;;
830;SDS011;397;50.564;7.272;2023-11-19T09:13:50;15.20;;;3.27;;
830;SDS011;397;50.564;7.272;2023-11-19T09:16:18;19.70;;;5.77;;
830;SDS011;397;50.564;7.272;2023-11-19T09:18:46;13.40;;;3.43;;
830;SDS011;397;50.564;7.272;2023-11-19T09:21:13;12.30;;;4.07;;
830;SDS011;397;50.564;7.272;2023-11-19T09:23:41;14.23;;;4.57;;
830;SDS011;397;50.564;7.272;2023-11-19T09:26:10;15.13;;;4.47;;
830;SDS011;397;50.564;7.272;2023-11-19T09:28:38;10.50;;;3.70;;
830;SDS011;397;50.564;7.272;2023-11-19T09:31:16;15.97;;;4.20;;
830;SDS011;397;50.564;7.272;2023-11-19T09:33:44;16.00;;;5.27;;
830;SDS011;397;50.564;7.272;2023-11-19T09:36:12;16.37;;;4.47;;
830;SDS011;397;50.564;7.272;2023-11-19T09:38:43;15.27;;;5.10;;
830;SDS011;397;50.564;7.272;2023-11-19T09:41:11;16.73;;;4.73;;
830;SDS011;397;50.564;7.272;2023-11-19T09:43:40;13.90;;;4.10;;
830;SDS011;397;50.564;7.272;2023-11-19T09:46:13;13.80;;;3.63;;
830;SDS011;397;50.564;7.272;2023-11-19T09:48:38;15.60;;;4.40;;
830;SDS011;397;50.564;7.272;2023-11-19T09:51:09;14.73;;;4.90;;
830;SDS011;397;50.564;7.272;2023-11-19T09:53:38;16.67;;;4.20;;
830;SDS011;397;50.564;7.272;2023-11-19T09:56:06;13.07;;;3.30;;
830;SDS011;397;50.564;7.272;2023-11-19T09:58:38;15.57;;;5.40;;
830;SDS011;397;50.564;7.272;2023-11-19T10:01:07;18.40;;;3.87;;
830;SDS011;397;50.564;7.272;2023-11-19T10:03:37;13.80;;;4.53;;
830;SDS011;397;50.564;7.272;2023-11-19T10:06:07;14.87;;;4.50;;
830;SDS011;397;50.564;7.272;2023-11-19T10:08:38;11.87;;;3.87;;
830;SDS011;397;50.564;7.272;2023-11-19T10:11:07;15.70;;;3.70;;
830;SDS011;397;50.564;7.272;2023-11-19T10:13:35;12.23;;;3.70;;
830;SDS011;397;50.564;7.272;2023-11-19T10:16:10;16.20;;;4.73;;
830;SDS011;397;50.564;7.272;2023-11-19T10:18:45;12.10;;;4.07;;
830;SDS011;397;50.564;7.272;2023-11-19T10:21:13;13.00;;;3.70;;
830;SDS011;397;50.564;7.272;2023-11-19T10:23:52;11.80;;;4.37;;
830;SDS011;397;50.564;7.272;2023-11-19T10:26:20;13.13;;;4.10;;
830;SDS011;397;50.564;7.272;2023-11-19T10:28:49;15.27;;;4.80;;
830;SDS011;397;50.564;7.272;2023-11-19T10:31:18;12.40;;;4.20;;
830;SDS011;397;50.564;7.272;2023-11-19T10:33:47;16.30;;;5.13;;
830;SDS011;397;50.564;7.272;2023-11-19T10:36:15;13.00;;;4.10;;
830;SDS011;397;50.564;7.272;2023-11-19T10:38:54;14.70;;;5.40;;
830;SDS011;397;50.564;7.272;2023-11-19T10:41:29;14.50;;;4.00;;
830;SDS011;397;50.564;7.272;2023-11-19T10:43:58;15.77;;;4.20;;
830;SDS011;397;50.564;7.272;2023-11-19T10:46:38;17.00;;;3.90;;
830;SDS011;397;50.564;7.272;2023-11-19T10:49:07;11.47;;;3.80;;
830;SDS011;397;50.564;7.272;2023-11-19T10:51:35;17.43;;;5.67;;
830;SDS011;397;50.564;7.272;2023-11-19T10:54:04;12.67;;;4.80;;
830;SDS011;397;50.564;7.272;2023-11-19T10:56:35;14.20;;;4.03;;
830;SDS011;397;50.564;7.272;2023-11-19T10:59:03;19.67;;;3.90;;
830;SDS011;397;50.564;7.272;2023-11-19T11:01:45;20.23;;;4.20;;
830;SDS011;397;50.564;7.272;2023-11-19T11:04:13;14.20;;;4.43;;
830;SDS011;397;50.564;7.272;2023-11-19T11:06:42;17.40;;;4.27;;
830;SDS011;397;50.564;7.272;2023-11-19T11:09:11;14.97;;;4.90;;
830;SDS011;397;50.564;7.272;2023-11-19T11:11:40;22.60;;;5.47;;
830;SDS011;397;50.564;7.272;2023-11-19T11:14:11;12.00;;;4.60;;
830;SDS011;397;50.564;7.272;2023-11-19T11:16:42;11.80;;;4.47;;
830;SDS011;397;50.564;7.272;2023-11-19T11:19:11;14.97;;;4.47;;
830;SDS011;397;50.564;7.272;2023-11-19T11:21:40;7.30;;;3.10;;
830;SDS011;397;50.564;7.272;2023-11-19T11:24:26;16.20;;;6.00;;
830;SDS011;397;50.564;7.272;2023-11-19T11:32:07;11.70;;;3.83;;
830;SDS011;397;50.564;7.272;2023-11-19T11:34:44;13.90;;;3.57;;
830;SDS011;397;50.564;7.272;2023-11-19T11:37:18;9.50;;;3.70;;
830;SDS011;397;50.564;7.272;2023-11-19T11:39:50;15.60;;;4.50;;
830;SDS011;397;50.564;7.272;2023-11-19T11:45:00;11.90;;;3.90;;
830;SDS011;397;50.564;7.272;2023-11-19T11:50:15;12.53;;;4.30;;
830;SDS011;397;50.564;7.272;2023-11-19T11:55:36;13.17;;;3.57;;
830;SDS011;397;50.564;7.272;2023-11-19T11:58:03;19.07;;;5.07;;
830;SDS011;397;50.564;7.272;2023-11-19T12:00:38;13.57;;;3.57;;
830;SDS011;397;50.564;7.272;2023-11-19T12:03:04;11.23;;;3.87;;
830;SDS011;397;50.564;7.272;2023-11-19T12:05:43;16.17;;;3.60;;
830;SDS011;397;50.564;7.272;2023-11-19T12:08:04;12.17;;;3.90;;
830;SDS011;397;50.564;7.272;2023-11-19T12:10:38;14.53;;;3.70;;
830;SDS011;397;50.564;7.272;2023-11-19T12:13:06;7.80;;;3.03;;
830;SDS011;397;50.564;7.272;2023-11-19T12:16:20;13.93;;;4.00;;
830;SDS011;397;50.564;7.272;2023-11-19T12:18:04;10.17;;;4.30;;
830;SDS011;397;50.564;7.272;2023-11-19T12:20:33;11.37;;;4.17;;
830;SDS011;397;50.564;7.272;2023-11-19T12:23:04;13.00;;;4.23;;
830;SDS011;397;50.564;7.272;2023-11-19T12:25:34;13.10;;;3.60;;
830;SDS011;397;50.564;7.272;2023-11-19T12:28:03;11.53;;;3.87;;
830;SDS011;397;50.564;7.272;2023-11-19T12:30:31;10.43;;;3.77;;
830;SDS011;397;50.564;7.272;2023-11-19T12:32:59;12.10;;;3.17;;
830;SDS011;397;50.564;7.272;2023-11-19T12:35:28;15.73;;;3.93;;
830;SDS011;397;50.564;7.272;2023-11-19T12:37:56;11.30;;;3.70;;
830;SDS011;397;50.564;7.272;2023-11-19T12:40:24;11.70;;;2.80;;
830;SDS011;397;50.564;7.272;2023-11-19T12:42:53;8.53;;;2.90;;
830;SDS011;397;50.564;7.272;2023-11-19T12:45:22;16.00;;;3.50;;
830;SDS011;397;50.564;7.272;2023-11-19T12:48:04;10.93;;;3.30;;
830;SDS011;397;50.564;7.272;2023-11-19T12:50:21;13.57;;;4.53;;
830;SDS011;397;50.564;7.272;2023-11-19T12:52:57;11.77;;;3.10;;
830;SDS011;397;50.564;7.272;2023-11-19T12:55:25;11.90;;;3.83;;
830;SDS011;397;50.564;7.272;2023-11-19T12:57:53;12.07;;;3.70;;
830;SDS011;397;50.564;7.272;2023-11-19T13:00:25;10.43;;;3.50;;
830;SDS011;397;50.564;7.272;2023-11-19T13:02:53;18.97;;;4.00;;
830;SDS011;397;50.564;7.272;2023-11-19T13:10:29;9.07;;;3.33;;
830;SDS011;397;50.564;7.272;2023-11-19T13:13:15;9.37;;;3.07;;
830;SDS011;397;50.564;7.272;2023-11-19T13:15:28;15.40;;;4.20;;
830;SDS011;397;50.564;7.272;2023-11-19T13:17:55;6.80;;;2.43;;
830;SDS011;397;50.564;7.272;2023-11-19T13:20:23;10.17;;;3.30;;
830;SDS011;397;50.564;7.272;2023-11-19T13:22:56;10.57;;;3.70;;
830;SDS011;397;50.564;7.272;2023-11-19T13:25:24;10.43;;;4.00;;
830;SDS011;397;50.564;7.272;2023-11-19T13:27:51;10.83;;;3.53;;
830;SDS011;397;50.564;7.272;2023-11-19T13:30:19;11.93;;;3.43;;
830;SDS011;397;50.564;7.272;2023-11-19T13:32:46;8.03;;;3.40;;
830;SDS011;397;50.564;7.272;2023-11-19T13:35:13;19.53;;;4.30;;
830;SDS011;397;50.564;7.272;2023-11-19T13:37:40;20.47;;;4.43;;
830;SDS011;397;50.564;7.272;2023-11-19T13:40:08;13.70;;;4.40;;
830;SDS011;397;50.564;7.272;2023-11-19T13:42:37;11.33;;;4.10;;
830;SDS011;397;50.564;7.272;2023-11-19T13:45:07;13.37;;;4.10;;
830;SDS011;397;50.564;7.272;2023-11-19T13:47:36;15.93;;;7.97;;
830;SDS011;397;50.564;7.272;2023-11-19T13:50:04;12.13;;;4.20;;
830;SDS011;397;50.564;7.272;2023-11-19T13:52:32;12.53;;;3.90;;
830;SDS011;397;50.564;7.272;2023-11-19T13:54:59;13.30;;;3.43;;
830;SDS011;397;50.564;7.272;2023-11-19T13:57:26;15.77;;;3.60;;
830;SDS011;397;50.564;7.272;2023-11-19T13:59:57;13.37;;;3.43;;
830;SDS011;397;50.564;7.272;2023-11-19T14:02:25;16.67;;;4.03;;
830;SDS011;397;50.564;7.272;2023-11-19T14:04:52;17.03;;;4.30;;
830;SDS011;397;50.564;7.272;2023-11-19T14:07:20;14.70;;;3.97;;
830;SDS011;397;50.564;7.272;2023-11-19T14:09:48;15.40;;;3.40;;
830;SDS011;397;50.564;7.272;2023-11-19T14:12:16;14.70;;;4.10;;
830;SDS011;397;50.564;7.272;2023-11-19T14:14:43;9.27;;;3.43;;
830;SDS011;397;50.564;7.272;2023-11-19T14:17:11;11.63;;;3.60;;
830;SDS011;397;50.564;7.272;2023-11-19T14:19:38;22.63;;;4.30;;
830;SDS011;397;50.564;7.272;2023-11-19T14:22:06;10.33;;;3.17;;
830;SDS011;397;50.564;7.272;2023-11-19T14:24:34;10.13;;;3.30;;
830;SDS011;397;50.564;7.272;2023-11-19T14:27:02;11.73;;;2.93;;
830;SDS011;397;50.564;7.272;2023-11-19T14:29:29;14.10;;;3.33;;
830;SDS011;397;50.564;7.272;2023-11-19T14:31:57;17.20;;;3.93;;
830;SDS011;397;50.564;7.272;2023-11-19T14:34:25;12.73;;;3.50;;
830;SDS011;397;50.564;7.272;2023-11-19T14:36:52;13.40;;;2.90;;
830;SDS011;397;50.564;7.272;2023-11-19T14:39:20;9.23;;;4.30;;
830;SDS011;397;50.564;7.272;2023-11-19T14:41:48;10.97;;;3.13;;
830;SDS011;397;50.564;7.272;2023-11-19T14:44:16;11.53;;;4.20;;
830;SDS011;397;50.564;7.272;2023-11-19T14:46:45;8.30;;;3.50;;
830;SDS011;397;50.564;7.272;2023-11-19T14:49:13;13.93;;;3.70;;
830;SDS011;397;50.564;7.272;2023-11-19T14:51:40;12.43;;;4.00;;
830;SDS011;397;50.564;7.272;2023-11-19T14:54:08;11.67;;;3.93;;
830;SDS011;397;50.564;7.272;2023-11-19T14:56:35;15.57;;;4.30;;
830;SDS011;397;50.564;7.272;2023-11-19T14:59:04;10.93;;;3.60;;
830;SDS011;397;50.564;7.272;2023-11-19T15:01:32;14.37;;;3.17;;
830;SDS011;397;50.564;7.272;2023-11-19T15:03:59;8.70;;;3.10;;
830;SDS011;397;50.564;7.272;2023-11-19T15:06:27;10.93;;;4.00;;
830;SDS011;397;50.564;7.272;2023-11-19T15:08:56;10.73;;;3.03;;
830;SDS011;397;50.564;7.272;2023-11-19T15:11:23;10.23;;;3.63;;
830;SDS011;397;50.564;7.272;2023-11-19T15:13:51;26.80;;;16.80;;
830;SDS011;397;50.564;7.272;2023-11-19T15:16:19;13.20;;;5.23;;
830;SDS011;397;50.564;7.272;2023-11-19T15:18:48;11.03;;;5.70;;
830;SDS011;397;50.564;7.272;2023-11-19T15:21:16;13.20;;;5.63;;
830;SDS011;397;50.564;7.272;2023-11-19T15:23:43;13.03;;;4.43;;
830;SDS011;397;50.564;7.272;2023-11-19T15:26:11;15.10;;;5.53;;
830;SDS011;397;50.564;7.272;2023-11-19T15:28:38;13.97;;;3.60;;
830;SDS011;397;50.564;7.272;2023-11-19T15:31:05;10.70;;;3.40;;
830;SDS011;397;50.564;7.272;2023-11-19T15:33:33;15.37;;;4.87;;
830;SDS011;397;50.564;7.272;2023-11-19T15:36:01;8.03;;;3.40;;
830;SDS011;397;50.564;7.272;2023-11-19T15:38:30;8.63;;;3.07;;
830;SDS011;397;50.564;7.272;2023-11-19T15:40:58;11.43;;;3.67;;
830;SDS011;397;50.564;7.272;2023-11-19T15:43:25;12.27;;;3.67;;
830;SDS011;397;50.564;7.272;2023-11-19T15:45:53;8.50;;;2.83;;
830;SDS011;397;50.564;7.272;2023-11-19T15:48:20;10.27;;;3.40;;
830;SDS011;397;50.564;7.272;2023-11-19T15:50:48;15.10;;;4.30;;
830;SDS011;397;50.564;7.272;2023-11-19T15:53:15;9.63;;;4.10;;
830;SDS011;397;50.564;7.272;2023-11-19T15:55:44;12.77;;;3.13;;
830;SDS011;397;50.564;7.272;2023-11-19T15:58:12;15.37;;;4.37;;
830;SDS011;397;50.564;7.272;2023-11-19T16:00:39;11.07;;;3.33;;
830;SDS011;397;50.564;7.272;2023-11-19T16:03:08;14.63;;;4.77;;